createdAt,value
2023-03-15T00:02:09.504Z,99.90
2023-03-15T00:04:37.321Z,99.90
2023-03-15T00:07:05.027Z,99.90
2023-03-15T00:09:32.738Z,99.90
2023-03-15T00:12:00.557Z,99.90
2023-03-15T00:14:29.657Z,99.90
2023-03-15T00:16:57.402Z,99.90
2023-03-15T00:19:25.190Z,99.90
2023-03-15T00:21:52.882Z,99.90
2023-03-15T00:24:20.967Z,99.90
2023-03-15T00:26:48.692Z,99.90
2023-03-15T00:29:16.434Z,99.90
2023-03-15T00:31:45.931Z,99.90
2023-03-15T00:34:13.873Z,99.90
2023-03-15T00:36:43.500Z,99.90
2023-03-15T00:39:11.392Z,99.90
2023-03-15T00:41:39.241Z,99.90
2023-03-15T00:44:06.964Z,99.90
2023-03-15T00:46:34.778Z,99.90
2023-03-15T00:49:05.097Z,99.90
2023-03-15T00:51:33.725Z,99.90
2023-03-15T00:54:01.506Z,99.90
2023-03-15T00:56:30.113Z,99.90
2023-03-15T00:58:58.723Z,99.90
2023-03-15T01:01:29.182Z,99.90
2023-03-15T01:03:57.181Z,99.90
2023-03-15T01:06:28.803Z,99.90
2023-03-15T01:08:57.036Z,99.90
2023-03-15T01:11:26.553Z,99.90
2023-03-15T01:13:55.880Z,99.90
2023-03-15T01:16:23.932Z,99.90
2023-03-15T01:18:52.483Z,99.90
2023-03-15T01:21:21.358Z,99.90
2023-03-15T01:23:51.097Z,99.90
2023-03-15T01:26:19.185Z,99.90
2023-03-15T01:28:47.484Z,99.90
2023-03-15T01:31:19.569Z,99.90
2023-03-15T01:33:47.336Z,99.90
2023-03-15T01:36:18.311Z,99.90
2023-03-15T01:38:46.552Z,99.90
2023-03-15T01:41:16.702Z,99.90
2023-03-15T01:43:47.131Z,99.90
2023-03-15T01:46:24.852Z,99.90
2023-03-15T01:48:57.238Z,99.90
2023-03-15T01:51:29.918Z,99.90
2023-03-15T01:54:04.319Z,99.90
2023-03-15T01:56:35.614Z,99.90
2023-03-15T01:59:06.423Z,99.90
2023-03-15T02:01:37.270Z,99.90
2023-03-15T02:04:10.289Z,99.90
2023-03-15T02:06:39.083Z,99.90
2023-03-15T02:09:14.793Z,99.90
2023-03-15T02:11:44.423Z,99.90
2023-03-15T02:14:14.194Z,99.90
2023-03-15T02:16:44.275Z,99.90
2023-03-15T02:19:26.337Z,99.90
2023-03-15T02:22:01.541Z,99.90
2023-03-15T02:24:40.004Z,99.90
2023-03-15T02:27:09.456Z,99.90
2023-03-15T02:29:38.720Z,99.90
2023-03-15T02:32:06.651Z,99.90
2023-03-15T02:34:34.434Z,99.90
2023-03-15T02:37:02.178Z,99.90
2023-03-15T02:39:29.880Z,99.90
2023-03-15T02:41:59.778Z,99.90
2023-03-15T02:44:31.295Z,99.90
2023-03-15T02:47:05.244Z,99.90
2023-03-15T02:49:38.307Z,99.90
2023-03-15T02:52:06.810Z,99.90
2023-03-15T02:54:34.845Z,99.90
2023-03-15T02:57:02.930Z,99.90
2023-03-15T02:59:30.850Z,99.90
2023-03-15T03:02:00.278Z,99.90
2023-03-15T03:04:28.228Z,99.90
2023-03-15T03:06:55.977Z,99.90
2023-03-15T03:09:24.382Z,99.90
2023-03-15T03:11:52.113Z,99.90
2023-03-15T03:14:19.829Z,99.90
2023-03-15T03:16:48.289Z,99.90
2023-03-15T03:19:17.365Z,99.90
2023-03-15T03:21:45.105Z,99.90
2023-03-15T03:24:15.992Z,99.90
2023-03-15T03:26:46.109Z,99.90
2023-03-15T03:29:16.660Z,99.90
2023-03-15T03:31:45.211Z,99.90
2023-03-15T03:34:15.488Z,99.90
2023-03-15T03:36:44.832Z,99.90
2023-03-15T03:39:12.641Z,99.90
2023-03-15T03:41:40.438Z,99.90
2023-03-15T03:44:08.165Z,99.90
2023-03-15T03:46:36.241Z,99.90
2023-03-15T03:49:04.139Z,99.90
2023-03-15T03:51:33.945Z,99.90
2023-03-15T03:54:03.662Z,99.90
2023-03-15T03:56:31.801Z,99.90
2023-03-15T03:58:59.688Z,99.90
2023-03-15T04:01:27.484Z,99.90
2023-03-15T04:03:55.176Z,99.90
2023-03-15T04:06:23.482Z,99.90
2023-03-15T04:08:51.289Z,99.90
2023-03-15T04:11:20.372Z,99.90
2023-03-15T04:13:48.131Z,99.90
2023-03-15T04:16:15.934Z,99.90
2023-03-15T04:18:43.671Z,99.90
2023-03-15T04:21:11.427Z,99.90
2023-03-15T04:23:40.711Z,99.90
2023-03-15T04:26:08.449Z,99.90
2023-03-15T04:28:38.788Z,99.90
2023-03-15T04:31:10.465Z,99.90
2023-03-15T04:33:38.255Z,99.90
2023-03-15T04:36:06.488Z,99.90
2023-03-15T04:38:34.457Z,99.90
2023-03-15T04:41:02.214Z,99.90
2023-03-15T04:43:29.922Z,99.90
2023-03-15T04:45:59.137Z,99.90
2023-03-15T04:48:26.924Z,99.90
2023-03-15T04:50:54.652Z,99.90
2023-03-15T04:53:22.411Z,99.90
2023-03-15T04:55:50.097Z,99.90
2023-03-15T04:58:17.891Z,99.90
2023-03-15T05:00:45.941Z,99.90
2023-03-15T05:03:14.999Z,99.90
2023-03-15T05:05:42.850Z,99.90
2023-03-15T05:08:10.625Z,99.90
2023-03-15T05:10:38.427Z,99.90
2023-03-15T05:13:06.218Z,99.90
2023-03-15T05:15:34.018Z,99.90
2023-03-15T05:18:01.891Z,99.90
2023-03-15T05:20:31.978Z,99.90
2023-03-15T05:22:59.803Z,99.90
2023-03-15T05:25:27.619Z,99.90
2023-03-15T05:27:56.521Z,99.90
2023-03-15T05:30:24.317Z,99.90
2023-03-15T05:32:52.151Z,99.90
2023-03-15T05:35:20.270Z,99.90
2023-03-15T05:37:49.461Z,99.90
2023-03-15T05:40:17.347Z,99.90
2023-03-15T05:42:45.134Z,99.90
2023-03-15T05:45:13.126Z,99.90
2023-03-15T05:47:40.881Z,99.90
2023-03-15T05:50:09.324Z,99.90
2023-03-15T05:52:37.114Z,99.90
2023-03-15T05:55:06.782Z,99.90
2023-03-15T05:57:34.539Z,99.90
2023-03-15T06:00:02.419Z,99.90
2023-03-15T06:02:30.129Z,99.90
2023-03-15T06:04:57.800Z,99.90
2023-03-15T06:07:25.639Z,99.90
2023-03-15T06:09:53.397Z,99.90
2023-03-15T06:12:22.509Z,99.90
2023-03-15T06:14:50.501Z,99.90
2023-03-15T06:17:18.248Z,99.90
2023-03-15T06:19:45.955Z,99.90
2023-03-15T06:22:13.891Z,99.90
2023-03-15T06:24:42.687Z,99.90
2023-03-15T06:27:10.415Z,99.90
2023-03-15T06:29:39.453Z,99.90
2023-03-15T06:32:07.758Z,99.90
2023-03-15T06:34:35.531Z,99.90
2023-03-15T06:37:03.375Z,99.90
2023-03-15T06:39:34.231Z,99.90
2023-03-15T06:42:03.707Z,99.90
2023-03-15T06:44:31.519Z,99.90
2023-03-15T06:47:00.662Z,99.90
2023-03-15T06:49:28.357Z,99.90
2023-03-15T06:51:56.124Z,99.90
2023-03-15T06:54:24.008Z,99.90
2023-03-15T06:56:51.789Z,99.90
2023-03-15T06:59:19.552Z,99.90
2023-03-15T07:01:47.444Z,99.90
2023-03-15T07:04:17.253Z,99.90
2023-03-15T07:06:45.021Z,99.90
2023-03-15T07:09:12.736Z,99.90
2023-03-15T07:11:40.502Z,99.90
2023-03-15T07:14:08.376Z,99.90
2023-03-15T07:16:36.209Z,99.90
2023-03-15T07:19:04.016Z,99.90
2023-03-15T07:21:33.260Z,99.90
2023-03-15T07:24:01.015Z,99.90
2023-03-15T07:26:28.725Z,99.90
2023-03-15T07:28:56.535Z,99.90
2023-03-15T07:31:24.285Z,99.90
2023-03-15T07:33:52.089Z,99.90
2023-03-15T07:36:19.904Z,99.90
2023-03-15T07:38:49.266Z,99.90
2023-03-15T07:41:17.088Z,99.90
2023-03-15T07:43:44.896Z,99.90
2023-03-15T07:46:12.805Z,99.90
2023-03-15T07:48:41.083Z,99.90
2023-03-15T07:51:09.225Z,99.90
2023-03-15T07:53:37.019Z,99.90
2023-03-15T07:56:06.626Z,99.90
2023-03-15T07:58:34.443Z,99.90
2023-03-15T08:01:02.241Z,99.90
2023-03-15T08:03:30.106Z,99.90
2023-03-15T08:05:57.918Z,99.90
2023-03-15T08:08:26.174Z,99.90
2023-03-15T08:10:53.988Z,99.90
2023-03-15T08:13:24.197Z,99.90
2023-03-15T08:15:51.916Z,99.90
2023-03-15T08:18:19.801Z,99.90
2023-03-15T08:20:47.489Z,99.90
2023-03-15T08:23:16.332Z,99.90
2023-03-15T08:25:45.003Z,99.90
2023-03-15T08:28:13.007Z,99.90
2023-03-15T08:30:42.243Z,99.90
2023-03-15T08:33:12.488Z,99.90
2023-03-15T08:35:41.296Z,99.90
2023-03-15T08:38:10.051Z,99.90
2023-03-15T08:40:39.838Z,99.90
2023-03-15T08:43:07.720Z,99.90
2023-03-15T08:45:50.955Z,99.90
2023-03-15T08:48:24.521Z,99.90
2023-03-15T08:50:52.213Z,99.90
2023-03-15T08:53:19.931Z,99.90
2023-03-15T08:55:49.316Z,99.90
2023-03-15T08:58:17.224Z,99.90
2023-03-15T09:00:47.562Z,99.90
2023-03-15T09:03:17.946Z,99.90
2023-03-15T09:05:49.434Z,99.90
2023-03-15T09:08:21.678Z,99.90
2023-03-15T09:10:51.535Z,99.90
2023-03-15T09:13:21.081Z,99.90
2023-03-15T09:15:52.992Z,99.90
2023-03-15T09:18:24.239Z,99.90
2023-03-15T09:20:57.666Z,99.90
2023-03-15T09:23:27.947Z,99.90
2023-03-15T09:25:57.709Z,99.90
2023-03-15T09:28:27.469Z,99.90
2023-03-15T09:30:59.579Z,99.90
2023-03-15T09:33:29.548Z,99.90
2023-03-15T09:36:01.150Z,99.90
2023-03-15T09:38:31.251Z,99.90
2023-03-15T09:41:02.176Z,99.90
2023-03-15T09:44:01.199Z,99.90
2023-03-15T09:46:35.519Z,99.90
2023-03-15T09:49:13.694Z,99.90
2023-03-15T09:51:49.233Z,99.90
2023-03-15T09:54:24.074Z,99.90
2023-03-15T09:56:57.233Z,99.90
2023-03-15T09:59:31.036Z,99.90
2023-03-15T10:02:02.085Z,99.90
2023-03-15T10:04:34.526Z,99.90
2023-03-15T10:07:04.838Z,99.90
2023-03-15T10:09:34.417Z,99.90
2023-03-15T10:12:09.798Z,99.90
2023-03-15T10:15:00.633Z,99.90
2023-03-15T10:17:38.686Z,99.90
2023-03-15T10:20:12.341Z,99.90
2023-03-15T10:22:51.164Z,99.90
2023-03-15T10:25:23.409Z,99.90
2023-03-15T10:27:55.267Z,99.90
2023-03-15T10:30:25.129Z,99.90
2023-03-15T10:32:57.893Z,99.90
2023-03-15T10:35:25.828Z,99.90
2023-03-15T10:37:55.188Z,99.90
2023-03-15T10:40:43.683Z,99.90
2023-03-15T10:43:19.354Z,99.90
2023-03-15T10:46:01.206Z,99.90
2023-03-15T10:48:29.781Z,99.90
2023-03-15T10:50:59.278Z,99.90
2023-03-15T10:53:28.421Z,99.90
2023-03-15T10:56:09.215Z,99.90
2023-03-15T10:58:58.992Z,99.90
2023-03-15T11:01:35.950Z,99.90
2023-03-15T11:04:16.046Z,99.90
2023-03-15T11:06:46.934Z,99.90
2023-03-15T11:09:18.139Z,99.90
2023-03-15T11:12:00.724Z,99.90
2023-03-15T11:14:34.976Z,99.90
2023-03-15T11:17:05.325Z,99.90
2023-03-15T11:19:36.960Z,99.90
2023-03-15T11:22:04.957Z,99.90
2023-03-15T11:24:35.165Z,99.90
2023-03-15T11:27:04.948Z,99.90
2023-03-15T11:29:35.408Z,99.90
2023-03-15T11:32:12.188Z,99.90
2023-03-15T11:34:45.109Z,99.90
2023-03-15T11:37:17.758Z,99.90
2023-03-15T11:39:58.878Z,99.90
2023-03-15T11:42:34.772Z,99.90
2023-03-15T11:45:06.054Z,99.90
2023-03-15T11:47:43.914Z,99.90
2023-03-15T11:50:14.928Z,99.90
2023-03-15T11:52:43.058Z,99.90
2023-03-15T11:55:19.388Z,99.90
2023-03-15T11:57:49.077Z,99.90
2023-03-15T12:00:45.852Z,99.90
2023-03-15T12:03:35.234Z,99.90
2023-03-15T12:06:11.844Z,99.90
2023-03-15T12:08:45.537Z,99.90
2023-03-15T12:11:35.636Z,99.90
2023-03-15T12:14:12.732Z,99.10
2023-03-15T12:16:43.552Z,98.00
2023-03-15T12:19:16.180Z,98.50
2023-03-15T12:21:47.967Z,98.60
2023-03-15T12:24:22.057Z,97.90
2023-03-15T12:26:59.181Z,96.80
2023-03-15T12:29:29.035Z,96.00
2023-03-15T12:32:00.840Z,95.50
2023-03-15T12:34:44.522Z,96.10
2023-03-15T12:37:18.404Z,96.00
2023-03-15T12:39:50.482Z,95.90
2023-03-15T12:42:52.503Z,96.30
2023-03-15T12:45:43.365Z,98.20
2023-03-15T12:48:25.637Z,99.70
2023-03-15T12:50:59.044Z,99.90
2023-03-15T12:53:38.761Z,99.90
2023-03-15T12:56:29.083Z,97.60
2023-03-15T12:59:02.022Z,95.70
2023-03-15T13:01:31.318Z,95.70
2023-03-15T13:03:59.621Z,93.20
2023-03-15T13:06:45.543Z,93.50
2023-03-15T13:09:22.779Z,93.90
2023-03-15T13:11:56.921Z,93.50
2023-03-15T13:14:37.441Z,92.90
2023-03-15T13:17:17.346Z,93.90
2023-03-15T13:19:50.177Z,92.00
2023-03-15T13:22:28.666Z,92.70
2023-03-15T13:25:04.399Z,94.10
2023-03-15T13:27:50.931Z,92.70
2023-03-15T13:30:33.525Z,92.60
2023-03-15T13:33:15.168Z,92.40
2023-03-15T13:35:44.926Z,91.10
2023-03-15T13:38:25.909Z,90.30
2023-03-15T13:40:53.845Z,89.80
2023-03-15T13:43:25.603Z,86.70
2023-03-15T13:45:58.184Z,86.60
2023-03-15T13:48:29.712Z,86.80
2023-03-15T13:51:01.670Z,88.60
2023-03-15T13:53:48.186Z,89.00
2023-03-15T13:56:18.687Z,87.30
2023-03-15T13:58:47.194Z,87.60
2023-03-15T14:01:17.400Z,84.60
2023-03-15T14:03:50.356Z,80.70
2023-03-15T14:06:23.614Z,78.40
2023-03-15T14:08:55.606Z,79.10
2023-03-15T14:11:40.467Z,80.80
2023-03-15T14:14:24.068Z,78.00
2023-03-15T14:17:03.990Z,78.50
2023-03-15T14:19:36.760Z,81.90
2023-03-15T14:22:13.482Z,84.30
2023-03-15T14:24:42.914Z,83.50
2023-03-15T14:27:16.589Z,83.90
2023-03-15T14:29:48.599Z,80.00
2023-03-15T14:32:26.412Z,79.00
2023-03-15T14:35:02.197Z,78.00
2023-03-15T14:37:36.873Z,78.90
2023-03-15T14:40:17.894Z,76.10
2023-03-15T14:42:46.981Z,74.60
2023-03-15T14:45:15.788Z,73.60
2023-03-15T14:47:56.288Z,73.20
2023-03-15T14:50:28.831Z,72.40
2023-03-15T14:52:58.968Z,74.60
2023-03-15T14:55:31.149Z,79.20
2023-03-15T14:57:58.951Z,81.90
2023-03-15T15:00:27.061Z,83.80
2023-03-15T15:02:56.625Z,88.60
2023-03-15T15:05:28.733Z,89.70
2023-03-15T15:08:02.543Z,91.10
2023-03-15T15:10:30.637Z,91.00
2023-03-15T15:13:05.919Z,91.40
2023-03-15T15:15:47.445Z,91.70
2023-03-15T15:18:19.860Z,92.70
2023-03-15T15:20:51.384Z,93.30
2023-03-15T15:23:21.750Z,91.50
2023-03-15T15:25:51.133Z,90.50
2023-03-15T15:28:33.411Z,91.00
2023-03-15T15:31:02.846Z,91.30
2023-03-15T15:33:31.504Z,90.70
2023-03-15T15:36:01.037Z,91.10
2023-03-15T15:38:37.849Z,91.30
2023-03-15T15:41:06.012Z,90.80
2023-03-15T15:43:33.944Z,90.80
2023-03-15T15:46:02.037Z,90.30
2023-03-15T15:48:29.972Z,90.10
2023-03-15T15:50:58.517Z,89.20
2023-03-15T15:53:32.649Z,89.10
2023-03-15T15:56:00.835Z,88.60
2023-03-15T15:58:28.626Z,86.30
2023-03-15T16:00:56.336Z,86.80
2023-03-15T16:03:24.337Z,86.20
2023-03-15T16:05:52.833Z,86.20
2023-03-15T16:08:23.514Z,88.90
2023-03-15T16:10:52.684Z,89.50
2023-03-15T16:13:20.398Z,86.90
2023-03-15T16:15:48.236Z,86.50
2023-03-15T16:18:16.034Z,86.00
2023-03-15T16:20:44.148Z,86.30
2023-03-15T16:23:18.106Z,86.30
2023-03-15T16:25:48.743Z,87.70
2023-03-15T16:28:17.810Z,88.90
2023-03-15T16:30:47.001Z,89.00
2023-03-15T16:33:17.500Z,89.30
2023-03-15T16:35:46.129Z,89.90
2023-03-15T16:38:16.878Z,90.20
2023-03-15T16:40:46.284Z,89.00
2023-03-15T16:43:14.491Z,89.70
2023-03-15T16:45:43.651Z,89.40
2023-03-15T16:48:12.678Z,89.70
2023-03-15T16:50:41.797Z,90.20
2023-03-15T16:53:11.596Z,90.40
2023-03-15T16:55:39.816Z,90.70
2023-03-15T16:58:17.399Z,90.90
2023-03-15T17:00:48.118Z,91.30
2023-03-15T17:03:17.399Z,91.70
2023-03-15T17:05:47.077Z,92.40
2023-03-15T17:08:18.393Z,92.50
2023-03-15T17:10:47.222Z,93.40
2023-03-15T17:13:18.116Z,93.70
2023-03-15T17:15:47.331Z,94.60
2023-03-15T17:18:18.388Z,95.00
2023-03-15T17:20:47.695Z,96.40
2023-03-15T17:23:15.799Z,96.10
2023-03-15T17:25:43.697Z,96.80
2023-03-15T17:28:11.536Z,97.40
2023-03-15T17:30:39.571Z,98.40
2023-03-15T17:33:09.213Z,98.70
2023-03-15T17:35:39.222Z,97.70
2023-03-15T17:38:17.464Z,99.00
2023-03-15T17:40:45.616Z,98.40
2023-03-15T17:43:15.615Z,98.50
2023-03-15T17:45:44.599Z,98.50
2023-03-15T17:48:14.471Z,98.90
2023-03-15T17:50:44.690Z,99.90
2023-03-15T17:53:16.584Z,99.90
2023-03-15T17:55:46.162Z,99.90
2023-03-15T17:58:19.359Z,99.90
2023-03-15T18:00:48.424Z,99.90
2023-03-15T18:03:18.612Z,99.90
2023-03-15T18:05:47.232Z,99.90
2023-03-15T18:08:18.158Z,99.90
2023-03-15T18:10:47.394Z,99.90
2023-03-15T18:13:18.429Z,99.90
2023-03-15T18:15:47.394Z,99.90
2023-03-15T18:18:15.521Z,99.90
2023-03-15T18:20:45.988Z,99.90
2023-03-15T18:23:15.032Z,99.90
2023-03-15T18:25:43.679Z,99.90
2023-03-15T18:28:12.193Z,99.90
2023-03-15T18:30:40.653Z,99.90
2023-03-15T18:33:08.693Z,99.90
2023-03-15T18:35:38.111Z,99.90
2023-03-15T18:38:07.350Z,99.90
2023-03-15T18:40:36.763Z,99.90
2023-03-15T18:43:05.526Z,99.90
2023-03-15T18:45:35.847Z,99.90
2023-03-15T18:48:04.641Z,99.90
2023-03-15T18:50:33.425Z,99.90
2023-03-15T18:53:01.798Z,99.90
2023-03-15T18:55:31.062Z,99.90
2023-03-15T18:57:58.973Z,99.90
2023-03-15T19:00:29.495Z,99.90
2023-03-15T19:02:58.701Z,99.90
2023-03-15T19:05:28.075Z,99.90
2023-03-15T19:07:55.990Z,99.90
2023-03-15T19:10:24.956Z,99.90
2023-03-15T19:12:55.051Z,99.90
2023-03-15T19:15:24.820Z,99.90
2023-03-15T19:17:54.417Z,99.90
2023-03-15T19:20:23.358Z,99.90
2023-03-15T19:22:53.554Z,99.90
2023-03-15T19:25:21.980Z,99.90
2023-03-15T19:27:50.280Z,99.90
2023-03-15T19:30:22.085Z,99.90
2023-03-15T19:32:51.278Z,99.90
2023-03-15T19:35:20.771Z,99.90
2023-03-15T19:37:49.715Z,99.90
2023-03-15T19:40:18.745Z,99.90
2023-03-15T19:42:48.446Z,99.90
2023-03-15T19:45:16.922Z,99.90
2023-03-15T19:47:46.902Z,99.90
2023-03-15T19:50:15.298Z,99.90
2023-03-15T19:52:46.532Z,99.90
2023-03-15T19:55:15.131Z,99.90
2023-03-15T19:57:43.568Z,99.90
2023-03-15T20:00:14.226Z,99.90
2023-03-15T20:02:42.424Z,99.90
2023-03-15T20:05:14.858Z,99.90
2023-03-15T20:07:43.411Z,99.90
2023-03-15T20:10:12.586Z,99.90
2023-03-15T20:12:42.214Z,99.90
2023-03-15T20:15:11.681Z,99.90
2023-03-15T20:17:40.688Z,99.90
2023-03-15T20:20:13.179Z,99.90
2023-03-15T20:22:42.628Z,99.90
2023-03-15T20:25:11.096Z,99.90
2023-03-15T20:27:39.358Z,99.90
2023-03-15T20:30:08.529Z,99.90
2023-03-15T20:32:36.414Z,99.90
2023-03-15T20:35:08.902Z,99.90
2023-03-15T20:37:40.258Z,99.90
2023-03-15T20:40:11.155Z,99.90
2023-03-15T20:42:39.483Z,99.90
2023-03-15T20:45:09.521Z,99.90
2023-03-15T20:47:38.600Z,99.90
2023-03-15T20:50:07.055Z,99.90
2023-03-15T20:52:34.925Z,99.90
2023-03-15T20:55:05.763Z,99.90
2023-03-15T20:57:33.586Z,99.90
2023-03-15T21:00:02.145Z,99.90
2023-03-15T21:02:29.883Z,99.90
2023-03-15T21:04:57.839Z,99.90
2023-03-15T21:07:25.579Z,99.90
2023-03-15T21:09:53.321Z,99.90
2023-03-15T21:12:22.589Z,99.90
2023-03-15T21:14:50.372Z,99.90
2023-03-15T21:17:19.084Z,99.90
2023-03-15T21:19:47.014Z,99.90
2023-03-15T21:22:14.770Z,99.90
2023-03-15T21:24:54.778Z,99.90
2023-03-15T21:27:26.490Z,99.90
2023-03-15T21:29:54.406Z,99.90
2023-03-15T21:32:22.428Z,99.90
2023-03-15T21:34:50.193Z,99.90
2023-03-15T21:37:18.033Z,99.90
2023-03-15T21:39:45.878Z,99.90
2023-03-15T21:42:13.669Z,99.90
2023-03-15T21:44:43.038Z,99.90
2023-03-15T21:47:11.614Z,99.90
2023-03-15T21:49:44.876Z,99.90
2023-03-15T21:52:16.153Z,99.90
2023-03-15T21:54:44.752Z,99.90
2023-03-15T21:57:13.534Z,99.90
2023-03-15T21:59:42.764Z,99.90
2023-03-15T22:02:14.067Z,99.90
2023-03-15T22:04:42.665Z,99.90
2023-03-15T22:07:11.051Z,99.90
2023-03-15T22:09:41.234Z,99.90
2023-03-15T22:12:10.385Z,99.90
2023-03-15T22:14:38.305Z,99.90
2023-03-15T22:17:07.598Z,99.90
2023-03-15T22:19:35.566Z,99.90
2023-03-15T22:22:03.269Z,99.90
2023-03-15T22:24:33.891Z,99.90
2023-03-15T22:27:01.913Z,99.90
2023-03-15T22:29:30.164Z,99.90
2023-03-15T22:31:57.951Z,99.90
2023-03-15T22:34:27.438Z,99.90
2023-03-15T22:36:55.215Z,99.90
2023-03-15T22:39:23.065Z,99.90
2023-03-15T22:41:50.782Z,99.90
2023-03-15T22:44:18.570Z,99.90
2023-03-15T22:46:46.292Z,99.90
2023-03-15T22:49:14.058Z,99.90
2023-03-15T22:51:43.226Z,99.90
2023-03-15T22:54:11.232Z,99.90
2023-03-15T22:56:40.929Z,99.90
2023-03-15T22:59:08.871Z,99.90
2023-03-15T23:01:36.647Z,99.90
2023-03-15T23:04:04.633Z,99.90
2023-03-15T23:06:32.578Z,99.90
2023-03-15T23:09:01.702Z,99.90
2023-03-15T23:11:29.553Z,99.90
2023-03-15T23:13:57.349Z,99.90
2023-03-15T23:16:25.095Z,99.90
2023-03-15T23:18:52.847Z,99.90
2023-03-15T23:21:20.698Z,99.90
2023-03-15T23:23:48.506Z,99.90
2023-03-15T23:26:19.395Z,99.90
2023-03-15T23:28:47.346Z,99.90
2023-03-15T23:31:15.112Z,99.90
2023-03-15T23:33:46.861Z,99.90
2023-03-15T23:36:15.056Z,99.90
2023-03-15T23:38:42.839Z,99.90
2023-03-15T23:41:10.561Z,99.90
2023-03-15T23:43:39.601Z,99.90
2023-03-15T23:46:07.542Z,99.90
2023-03-15T23:48:36.085Z,99.90
2023-03-15T23:51:04.024Z,99.90
2023-03-15T23:53:32.506Z,99.90
2023-03-15T23:56:00.256Z,99.90
2023-03-15T23:58:28.691Z,99.90
